createdAt,value
2022-11-14T00:02:45.581Z,5.21
2022-11-14T00:05:41.207Z,5.21
2022-11-14T00:08:31.824Z,5.24
2022-11-14T00:11:23.361Z,5.17
2022-11-14T00:14:13.799Z,5.19
2022-11-14T00:17:05.036Z,5.14
2022-11-14T00:19:55.031Z,5.14
2022-11-14T00:22:45.092Z,5.14
2022-11-14T00:25:35.324Z,5.15
2022-11-14T00:28:25.468Z,5.13
2022-11-14T00:31:15.712Z,5.15
2022-11-14T00:34:06.307Z,5.17
2022-11-14T00:36:56.368Z,5.15
2022-11-14T00:39:46.952Z,5.17
2022-11-14T00:42:37.043Z,5.13
2022-11-14T00:45:27.316Z,5.14
2022-11-14T00:48:17.711Z,5.12
2022-11-14T00:51:08.098Z,5.12
2022-11-14T00:53:58.159Z,5.14
2022-11-14T00:56:47.979Z,5.16
2022-11-14T00:59:37.856Z,5.17
2022-11-14T01:02:28.072Z,5.20
2022-11-14T01:05:18.398Z,5.22
2022-11-14T01:08:08.430Z,5.24
2022-11-14T01:11:00.392Z,5.23
2022-11-14T01:13:50.636Z,5.19
2022-11-14T01:16:41.017Z,5.22
2022-11-14T01:19:31.326Z,5.25
2022-11-14T01:22:21.371Z,5.28
2022-11-14T01:25:11.497Z,5.26
2022-11-14T01:28:02.111Z,5.26
2022-11-14T01:30:52.336Z,5.27
2022-11-14T01:33:42.931Z,5.29
2022-11-14T01:36:33.188Z,5.29
2022-11-14T01:39:23.238Z,5.24
2022-11-14T01:42:13.535Z,5.24
2022-11-14T01:46:01.502Z,5.27
2022-11-14T01:48:56.856Z,5.31
2022-11-14T01:51:50.207Z,5.30
2022-11-14T01:54:45.832Z,5.29
2022-11-14T01:57:40.708Z,5.29
2022-11-14T02:00:30.607Z,5.29
2022-11-14T02:03:21.315Z,5.27
2022-11-14T02:06:17.138Z,5.28
2022-11-14T02:09:07.937Z,5.31
2022-11-14T02:12:07.941Z,5.29
2022-11-14T02:14:59.377Z,5.30
2022-11-14T02:17:49.512Z,5.27
2022-11-14T02:20:43.283Z,5.26
2022-11-14T02:23:33.636Z,5.25
2022-11-14T02:26:23.876Z,5.23
2022-11-14T02:29:14.055Z,5.24
2022-11-14T02:32:09.477Z,5.26
2022-11-14T02:35:00.719Z,5.27
2022-11-14T02:37:51.000Z,5.30
2022-11-14T02:40:41.266Z,5.26
2022-11-14T02:43:31.522Z,5.26
2022-11-14T02:46:21.489Z,5.24
2022-11-14T02:49:11.648Z,5.24
2022-11-14T02:52:01.899Z,5.24
2022-11-14T02:54:54.589Z,5.24
2022-11-14T02:57:45.274Z,5.24
2022-11-14T03:00:38.600Z,5.23
2022-11-14T03:03:38.377Z,5.22
2022-11-14T03:06:28.294Z,5.19
2022-11-14T03:09:18.298Z,5.20
2022-11-14T03:12:09.023Z,5.21
2022-11-14T03:15:00.450Z,5.16
2022-11-14T03:17:51.599Z,5.14
2022-11-14T03:20:41.729Z,5.13
2022-11-14T03:23:32.338Z,5.08
2022-11-14T03:26:22.371Z,5.08
2022-11-14T03:29:12.447Z,5.03
2022-11-14T03:32:02.299Z,4.97
2022-11-14T03:34:52.137Z,4.95
2022-11-14T03:37:42.162Z,4.90
2022-11-14T03:40:32.414Z,4.87
2022-11-14T03:43:22.671Z,4.82
2022-11-14T03:46:12.992Z,4.78
2022-11-14T03:49:05.375Z,4.77
2022-11-14T03:51:55.598Z,4.73
2022-11-14T03:54:48.548Z,4.67
2022-11-14T03:57:38.746Z,4.65
2022-11-14T04:00:28.926Z,4.59
2022-11-14T04:03:19.052Z,4.55
2022-11-14T04:06:09.045Z,4.50
2022-11-14T04:08:59.987Z,4.46
2022-11-14T04:11:50.016Z,4.43
2022-11-14T04:14:40.159Z,4.38
2022-11-14T04:17:31.869Z,4.36
2022-11-14T04:20:24.756Z,4.32
2022-11-14T04:23:15.204Z,4.29
2022-11-14T04:26:05.337Z,4.21
2022-11-14T04:28:56.697Z,4.16
2022-11-14T04:31:46.830Z,4.12
2022-11-14T04:34:36.806Z,4.05
2022-11-14T04:37:27.400Z,4.00
2022-11-14T04:40:17.397Z,3.96
2022-11-14T04:43:07.587Z,3.91
2022-11-14T04:45:57.606Z,3.90
2022-11-14T04:48:47.818Z,3.89
2022-11-14T04:51:37.967Z,3.86
2022-11-14T04:54:28.187Z,3.84
2022-11-14T04:57:18.555Z,3.82
2022-11-14T05:00:09.315Z,3.79
2022-11-14T05:03:00.267Z,3.76
2022-11-14T05:05:50.683Z,3.71
2022-11-14T05:08:40.572Z,3.68
2022-11-14T05:11:30.670Z,3.68
2022-11-14T05:14:20.826Z,3.67
2022-11-14T05:17:10.971Z,3.65
2022-11-14T05:20:00.902Z,3.65
2022-11-14T05:22:56.276Z,3.61
2022-11-14T05:25:48.263Z,3.58
2022-11-14T05:28:38.148Z,3.56
2022-11-14T05:31:28.274Z,3.53
2022-11-14T05:34:18.578Z,3.50
2022-11-14T05:37:09.225Z,3.46
2022-11-14T05:39:59.609Z,3.46
2022-11-14T05:42:49.770Z,3.46
2022-11-14T05:45:40.000Z,3.42
2022-11-14T05:48:30.850Z,3.43
2022-11-14T05:51:21.218Z,3.29
2022-11-14T05:54:11.478Z,3.24
2022-11-14T05:57:01.554Z,3.23
2022-11-14T05:59:51.629Z,3.17
2022-11-14T06:02:41.809Z,3.18
2022-11-14T06:05:35.276Z,3.18
2022-11-14T06:08:25.293Z,3.19
2022-11-14T06:11:20.819Z,3.19
2022-11-14T06:14:11.320Z,3.20
2022-11-14T06:17:01.532Z,3.36
2022-11-14T06:19:51.654Z,3.43
2022-11-14T06:22:42.561Z,3.37
2022-11-14T06:25:32.654Z,3.36
2022-11-14T06:28:25.730Z,3.36
2022-11-14T06:31:16.703Z,3.44
2022-11-14T06:34:07.051Z,3.47
2022-11-14T06:36:57.312Z,3.57
2022-11-14T06:39:47.360Z,3.67
2022-11-14T06:42:37.544Z,4.07
2022-11-14T06:45:27.343Z,4.65
2022-11-14T06:48:17.464Z,5.31
2022-11-14T06:51:08.174Z,6.07
2022-11-14T06:53:58.255Z,6.81
2022-11-14T06:56:48.556Z,7.49
2022-11-14T06:59:38.898Z,8.20
2022-11-14T07:02:29.204Z,8.82
2022-11-14T07:05:19.507Z,9.50
2022-11-14T07:08:16.006Z,10.20
2022-11-14T07:11:22.710Z,10.93
2022-11-14T07:14:13.361Z,11.87
2022-11-14T07:17:03.777Z,12.63
2022-11-14T07:19:54.074Z,13.39
2022-11-14T07:22:46.621Z,14.08
2022-11-14T07:25:36.558Z,14.64
2022-11-14T07:28:28.215Z,15.05
2022-11-14T07:31:20.030Z,15.59
2022-11-14T07:34:11.227Z,15.98
2022-11-14T07:37:01.488Z,16.39
2022-11-14T07:39:51.596Z,16.65
2022-11-14T07:42:41.840Z,16.19
2022-11-14T07:45:32.229Z,15.85
2022-11-14T07:48:23.562Z,16.26
2022-11-14T07:51:19.613Z,17.05
2022-11-14T07:54:11.867Z,17.91
2022-11-14T07:57:02.764Z,18.86
2022-11-14T07:59:53.028Z,19.76
2022-11-14T08:02:43.304Z,20.08
2022-11-14T08:05:33.544Z,20.49
2022-11-14T08:08:23.892Z,20.52
2022-11-14T08:11:23.020Z,20.93
2022-11-14T08:14:24.409Z,21.48
2022-11-14T08:17:14.972Z,22.13
2022-11-14T08:20:10.000Z,22.94
2022-11-14T08:23:07.290Z,23.63
2022-11-14T08:25:59.059Z,24.28
2022-11-14T08:28:53.012Z,24.75
2022-11-14T08:31:43.062Z,25.02
2022-11-14T08:34:33.347Z,25.19
2022-11-14T08:37:25.454Z,25.38
2022-11-14T08:40:15.996Z,25.66
2022-11-14T08:43:06.150Z,25.72
2022-11-14T08:46:02.216Z,25.94
2022-11-14T08:48:54.828Z,26.23
2022-11-14T08:51:45.257Z,26.14
2022-11-14T08:54:35.414Z,26.25
2022-11-14T08:57:25.655Z,26.31
2022-11-14T09:00:16.376Z,26.44
2022-11-14T09:03:16.232Z,26.48
2022-11-14T09:06:09.424Z,26.61
2022-11-14T09:09:02.644Z,26.82
2022-11-14T09:11:52.922Z,26.93
2022-11-14T09:14:43.189Z,26.98
2022-11-14T09:17:33.417Z,26.75
2022-11-14T09:20:31.077Z,26.24
2022-11-14T09:23:22.457Z,25.77
2022-11-14T09:26:12.737Z,25.50
2022-11-14T09:29:03.195Z,24.66
2022-11-14T09:31:56.817Z,23.66
2022-11-14T09:34:48.082Z,23.19
2022-11-14T09:37:39.086Z,22.28
2022-11-14T09:40:40.620Z,21.38
2022-11-14T09:43:52.766Z,21.03
2022-11-14T09:46:45.168Z,20.59
2022-11-14T09:49:36.951Z,20.16
2022-11-14T09:52:35.482Z,19.58
2022-11-14T09:55:37.104Z,19.49
2022-11-14T09:58:28.007Z,19.77
2022-11-14T10:01:43.052Z,20.22
2022-11-14T10:05:05.904Z,19.51
2022-11-14T10:08:07.095Z,19.43
2022-11-14T10:11:31.436Z,19.66
2022-11-14T10:14:52.442Z,19.73
2022-11-14T10:17:51.559Z,19.87
2022-11-14T10:21:00.447Z,19.87
2022-11-14T10:24:22.816Z,19.65
2022-11-14T10:27:25.502Z,19.66
2022-11-14T10:30:20.005Z,19.46
2022-11-14T10:33:25.385Z,19.38
2022-11-14T10:36:43.285Z,19.60
2022-11-14T10:39:53.040Z,19.72
2022-11-14T10:42:48.638Z,19.70
2022-11-14T10:45:49.704Z,19.40
2022-11-14T10:48:43.872Z,19.53
2022-11-14T10:51:42.417Z,19.31
2022-11-14T10:54:51.112Z,19.28
2022-11-14T10:57:42.099Z,19.45
2022-11-14T11:00:32.122Z,19.53
2022-11-14T11:03:41.872Z,19.29
2022-11-14T11:06:32.017Z,19.03
2022-11-14T11:09:46.781Z,18.97
2022-11-14T11:12:36.842Z,19.15
2022-11-14T11:15:32.643Z,19.33
2022-11-14T11:18:36.674Z,19.17
2022-11-14T11:21:51.479Z,18.75
2022-11-14T11:24:41.609Z,18.59
2022-11-14T11:27:31.858Z,18.72
2022-11-14T11:30:26.080Z,18.54
2022-11-14T11:33:21.841Z,18.37
2022-11-14T11:36:16.946Z,18.27
2022-11-14T11:39:19.793Z,18.10
2022-11-14T11:42:17.485Z,18.32
2022-11-14T11:45:17.396Z,18.30
2022-11-14T11:48:20.303Z,18.18
2022-11-14T11:51:18.320Z,17.65
2022-11-14T11:54:26.526Z,17.64
2022-11-14T11:57:21.949Z,17.23
2022-11-14T12:00:18.595Z,17.40
2022-11-14T12:03:20.334Z,17.59
2022-11-14T12:06:28.595Z,17.44
2022-11-14T12:09:48.654Z,17.28
2022-11-14T12:12:43.344Z,16.96
2022-11-14T12:15:51.378Z,16.80
2022-11-14T12:19:16.939Z,16.90
2022-11-14T12:22:35.495Z,16.59
2022-11-14T12:25:58.067Z,16.69
2022-11-14T12:29:30.909Z,16.60
2022-11-14T12:32:52.084Z,16.37
2022-11-14T12:35:54.821Z,16.14
2022-11-14T12:38:52.609Z,16.14
2022-11-14T12:41:42.695Z,15.90
2022-11-14T12:44:38.121Z,15.50
2022-11-14T12:47:28.769Z,15.01
2022-11-14T12:50:40.872Z,15.00
2022-11-14T12:53:38.146Z,14.93
2022-11-14T12:56:31.399Z,14.82
2022-11-14T12:59:37.233Z,14.96
2022-11-14T13:02:41.107Z,14.85
2022-11-14T13:05:52.767Z,14.73
2022-11-14T13:09:01.385Z,14.79
2022-11-14T13:12:10.562Z,14.70
2022-11-14T13:15:47.444Z,14.60
2022-11-14T13:19:33.529Z,14.40
2022-11-14T13:22:47.135Z,14.46
2022-11-14T13:25:37.529Z,14.33
2022-11-14T13:28:37.024Z,14.34
2022-11-14T13:31:35.843Z,14.30
2022-11-14T13:34:33.560Z,14.19
2022-11-14T13:37:29.701Z,14.05
2022-11-14T13:40:48.926Z,13.82
2022-11-14T13:43:49.293Z,13.74
2022-11-14T13:47:00.458Z,13.74
2022-11-14T13:50:13.408Z,13.74
2022-11-14T13:53:14.655Z,13.61
2022-11-14T13:56:04.676Z,13.36
2022-11-14T13:59:15.527Z,13.31
2022-11-14T14:02:11.627Z,13.23
2022-11-14T14:05:04.396Z,13.16
2022-11-14T14:08:12.575Z,13.12
2022-11-14T14:11:32.826Z,12.94
2022-11-14T14:14:53.849Z,12.91
2022-11-14T14:17:59.788Z,12.84
2022-11-14T14:21:05.941Z,12.68
2022-11-14T14:24:05.026Z,12.65
2022-11-14T14:27:13.183Z,12.55
2022-11-14T14:30:12.379Z,12.54
2022-11-14T14:33:03.608Z,12.50
2022-11-14T14:35:54.155Z,12.46
2022-11-14T14:38:45.076Z,12.43
2022-11-14T14:41:35.588Z,12.38
2022-11-14T14:44:33.483Z,12.30
2022-11-14T14:47:32.571Z,12.28
2022-11-14T14:50:26.907Z,12.26
2022-11-14T14:53:34.699Z,12.25
2022-11-14T14:56:26.174Z,12.22
2022-11-14T14:59:18.833Z,12.20
2022-11-14T15:02:16.703Z,12.16
2022-11-14T15:05:07.513Z,12.12
2022-11-14T15:08:00.619Z,12.13
2022-11-14T15:10:53.012Z,12.06
2022-11-14T15:13:43.805Z,11.93
2022-11-14T15:16:34.206Z,11.81
2022-11-14T15:19:27.552Z,11.74
2022-11-14T15:22:25.039Z,11.67
2022-11-14T15:25:14.990Z,11.60
2022-11-14T15:28:19.329Z,11.55
2022-11-14T15:31:19.089Z,11.48
2022-11-14T15:34:32.168Z,11.43
2022-11-14T15:37:23.177Z,11.36
2022-11-14T15:40:21.751Z,11.32
2022-11-14T15:43:38.122Z,11.22
2022-11-14T15:46:35.578Z,11.14
2022-11-14T15:49:27.461Z,11.11
2022-11-14T15:52:22.976Z,11.03
2022-11-14T15:55:19.262Z,10.93
2022-11-14T15:58:27.645Z,10.81
2022-11-14T16:01:28.286Z,10.77
2022-11-14T16:04:20.697Z,10.73
2022-11-14T16:07:12.982Z,10.68
2022-11-14T16:10:03.364Z,10.63
2022-11-14T16:12:54.137Z,10.57
2022-11-14T16:15:44.357Z,10.54
2022-11-14T16:18:34.728Z,10.50
2022-11-14T16:21:24.986Z,10.45
2022-11-14T16:24:21.026Z,10.43
2022-11-14T16:27:11.627Z,10.41
2022-11-14T16:30:01.764Z,10.33
2022-11-14T16:32:52.397Z,10.30
2022-11-14T16:35:42.766Z,10.28
2022-11-14T16:38:33.184Z,10.25
2022-11-14T16:41:23.643Z,10.25
2022-11-14T16:44:16.747Z,10.23
2022-11-14T16:47:07.026Z,10.12
2022-11-14T16:49:57.471Z,10.08
2022-11-14T16:52:47.999Z,10.03
2022-11-14T16:55:38.307Z,9.98
2022-11-14T16:58:28.546Z,9.96
2022-11-14T17:01:21.403Z,9.93
2022-11-14T17:04:11.681Z,9.91
2022-11-14T17:07:02.129Z,9.88
2022-11-14T17:09:52.545Z,9.83
2022-11-14T17:12:43.260Z,9.83
2022-11-14T17:15:33.358Z,9.82
2022-11-14T17:18:23.847Z,9.78
2022-11-14T17:21:15.505Z,9.73
2022-11-14T17:24:05.951Z,9.67
2022-11-14T17:26:56.130Z,9.64
2022-11-14T17:29:47.093Z,9.56
2022-11-14T17:32:37.424Z,9.51
2022-11-14T17:35:27.671Z,9.46
2022-11-14T17:38:17.929Z,9.38
2022-11-14T17:41:08.239Z,9.33
2022-11-14T17:44:01.947Z,9.26
2022-11-14T17:46:53.684Z,9.22
2022-11-14T17:49:43.671Z,9.15
2022-11-14T17:52:34.080Z,9.09
2022-11-14T17:55:24.329Z,9.00
2022-11-14T17:58:15.079Z,8.97
2022-11-14T18:01:13.423Z,8.89
2022-11-14T18:04:06.316Z,8.84
2022-11-14T18:06:56.881Z,8.83
2022-11-14T18:09:47.240Z,8.84
2022-11-14T18:12:37.661Z,8.82
2022-11-14T18:15:28.469Z,8.83
2022-11-14T18:18:20.262Z,8.83
2022-11-14T18:21:14.526Z,8.98
2022-11-14T18:24:11.695Z,9.11
2022-11-14T18:27:01.751Z,9.11
2022-11-14T18:29:53.114Z,9.09
2022-11-14T18:32:43.443Z,9.08
2022-11-14T18:35:33.718Z,9.00
2022-11-14T18:38:25.416Z,8.96
2022-11-14T18:41:21.230Z,8.96
2022-11-14T18:44:14.548Z,8.85
2022-11-14T18:47:04.946Z,8.75
2022-11-14T18:49:55.190Z,8.67
2022-11-14T18:52:45.380Z,8.59
2022-11-14T18:55:43.213Z,8.55
2022-11-14T18:58:33.650Z,8.43
2022-11-14T19:01:29.602Z,8.37
2022-11-14T19:04:20.216Z,8.26
2022-11-14T19:07:10.734Z,8.17
2022-11-14T19:10:00.861Z,8.10
2022-11-14T19:12:51.115Z,8.06
2022-11-14T19:15:42.622Z,7.99
2022-11-14T19:18:33.070Z,7.92
2022-11-14T19:21:23.782Z,7.86
2022-11-14T19:24:14.074Z,7.76
2022-11-14T19:27:04.258Z,7.72
2022-11-14T19:29:54.689Z,7.71
2022-11-14T19:32:45.089Z,7.65
2022-11-14T19:35:38.963Z,7.57
2022-11-14T19:38:32.661Z,7.52
2022-11-14T19:41:26.696Z,7.45
2022-11-14T19:44:16.723Z,7.44
2022-11-14T19:47:06.972Z,7.41
2022-11-14T19:49:57.683Z,7.35
2022-11-14T19:52:47.872Z,7.30
2022-11-14T19:55:38.338Z,7.28
2022-11-14T19:58:29.042Z,7.26
2022-11-14T20:01:24.820Z,7.22
2022-11-14T20:04:15.655Z,7.21
2022-11-14T20:07:05.970Z,7.19
2022-11-14T20:09:56.147Z,7.17
2022-11-14T20:12:46.408Z,7.15
2022-11-14T20:15:36.546Z,7.14
2022-11-14T20:18:31.830Z,7.13
2022-11-14T20:21:25.644Z,7.11
2022-11-14T20:24:21.392Z,7.07
2022-11-14T20:27:11.430Z,7.05
2022-11-14T20:30:02.760Z,7.04
2022-11-14T20:32:52.968Z,7.03
2022-11-14T20:35:43.552Z,7.02
2022-11-14T20:38:33.816Z,6.98
2022-11-14T20:41:25.213Z,6.90
2022-11-14T20:44:21.394Z,6.85
2022-11-14T20:47:11.739Z,6.80
2022-11-14T20:50:08.201Z,6.73
2022-11-14T20:52:58.196Z,6.70
2022-11-14T20:55:53.808Z,6.68
2022-11-14T20:58:44.710Z,6.61
2022-11-14T21:01:39.106Z,6.58
2022-11-14T21:04:35.007Z,6.53
2022-11-14T21:07:28.218Z,6.46
2022-11-14T21:10:40.061Z,6.42
2022-11-14T21:13:49.550Z,6.32
2022-11-14T21:16:40.536Z,6.33
2022-11-14T21:19:30.870Z,6.29
2022-11-14T21:22:23.481Z,6.24
2022-11-14T21:25:13.584Z,6.18
2022-11-14T21:28:03.803Z,6.14
2022-11-14T21:30:54.153Z,6.13
2022-11-14T21:33:45.158Z,6.12
2022-11-14T21:36:45.082Z,6.15
2022-11-14T21:39:36.510Z,6.15
2022-11-14T21:42:26.834Z,6.13
2022-11-14T21:45:17.181Z,6.12
2022-11-14T21:48:07.322Z,6.10
2022-11-14T21:51:11.106Z,6.06
2022-11-14T21:54:02.821Z,6.03
2022-11-14T21:56:53.201Z,5.98
2022-11-14T21:59:46.453Z,5.94
2022-11-14T22:02:55.733Z,5.92
2022-11-14T22:05:45.985Z,5.89
2022-11-14T22:08:36.123Z,5.88
2022-11-14T22:11:29.391Z,5.81
2022-11-14T22:14:19.391Z,5.75
2022-11-14T22:17:09.696Z,5.75
2022-11-14T22:20:00.153Z,5.71
2022-11-14T22:22:54.690Z,5.68
2022-11-14T22:25:52.904Z,5.65
2022-11-14T22:28:43.240Z,5.63
2022-11-14T22:31:33.594Z,5.65
2022-11-14T22:34:23.881Z,5.62
2022-11-14T22:37:14.183Z,5.64
2022-11-14T22:40:04.966Z,5.65
2022-11-14T22:42:55.398Z,5.62
2022-11-14T22:45:51.252Z,5.61
2022-11-14T22:48:44.447Z,5.60
2022-11-14T22:51:36.452Z,5.59
2022-11-14T22:54:26.469Z,5.58
2022-11-14T22:57:16.737Z,5.54
2022-11-14T23:00:08.847Z,5.49
2022-11-14T23:03:00.607Z,5.47
2022-11-14T23:05:50.737Z,5.46
2022-11-14T23:08:41.945Z,5.44
2022-11-14T23:11:33.092Z,5.40
2022-11-14T23:14:24.163Z,5.40
2022-11-14T23:17:14.449Z,5.35
2022-11-14T23:20:05.244Z,5.33
2022-11-14T23:22:55.750Z,5.31
2022-11-14T23:25:45.772Z,5.29
2022-11-14T23:28:36.342Z,5.25
2022-11-14T23:31:29.844Z,5.23
2022-11-14T23:34:23.073Z,5.20
2022-11-14T23:37:13.067Z,5.15
2022-11-14T23:40:03.459Z,5.12
2022-11-14T23:42:53.549Z,5.08
2022-11-14T23:45:43.779Z,5.05
2022-11-14T23:48:34.044Z,5.03
2022-11-14T23:51:24.473Z,5.03
2022-11-14T23:54:14.551Z,5.03
2022-11-14T23:57:04.931Z,5.00
2022-11-14T23:59:54.944Z,4.96
